Home > Products > Valid Products > TAF

000
FTUS41 KBUF 051503 AAA
TAFJHW
TAF AMD
KJHW 051503Z 0515/0612 VRB04KT P6SM SKC
     FM051900 34005KT P6SM FEW250
     FM060100 VRB03KT P6SM SCT250
     FM061000 16004KT P6SM FEW200
      AMD LTD TO CLD VIS AND WIND=



000
FTUS41 KBUF 051503 AAA
TAFROC
TAF AMD
KROC 051503Z 0515/0612 23004KT P6SM FEW250
     FM051700 32007KT P6SM SKC
     FM052200 01005KT P6SM FEW250
     FM052300 05004KT P6SM FEW250
     FM061000 19004KT P6SM FEW250=



000
FTUS41 KBUF 051503 AAA
TAFIAG
TAF AMD
KIAG 051503Z 0515/0612 21007KT P6SM FEW250
     FM052100 23008KT P6SM FEW250
     FM060000 19005KT P6SM FEW250
     FM060300 VRB03KT P6SM FEW250=



000
FTUS41 KBUF 051503 AAA
TAFART
TAF AMD
KART 051503Z 0515/0612 24008KT P6SM SKC
     FM051600 25008KT P6SM SKC
     FM060000 21004KT P6SM SKC
     FM060100 VRB03KT P6SM SKC=



000
FTUS41 KBUF 051503 AAA
TAFBUF
TAF AMD
KBUF 051503Z 0515/0612 23007KT P6SM SKC
     FM051800 24007KT P6SM FEW250
     FM052300 21006KT P6SM SKC
     FM060200 17004KT P6SM FEW250=



000
FTUS41 KBUF 051121
TAFJHW
TAF
KJHW 051121Z 0512/0612 VRB03KT 6SM BR SKC
     FM051300 VRB04KT P6SM SKC
     FM051900 34005KT P6SM FEW250
     FM060100 VRB03KT P6SM SCT250
     FM061000 16004KT P6SM FEW200
      AMD LTD TO CLD VIS AND WIND=



000
FTUS41 KBUF 051121
TAFART
TAF
KART 051121Z 0512/0612 22004KT P6SM SKC
     FM051600 25008KT P6SM SKC
     FM060000 21004KT P6SM SKC
     FM060100 VRB03KT P6SM SKC=



000
FTUS41 KBUF 051121
TAFIAG
TAF
KIAG 051121Z 0512/0612 20004KT P6SM SKC
     FM051400 24004KT P6SM FEW250
     FM052100 23008KT P6SM FEW250
     FM060000 19005KT P6SM FEW250
     FM060300 VRB03KT P6SM FEW250=



000
FTUS41 KBUF 051121
TAFBUF
TAF
KBUF 051121Z 0512/0612 21006KT P6SM SKC
     FM051800 25007KT P6SM FEW250
     FM052300 21006KT P6SM SKC
     FM060200 17004KT P6SM FEW250=



000
FTUS41 KBUF 051121
TAFROC
TAF
KROC 051121Z 0512/0612 VRB03KT P6SM FEW250
     FM051300 27004KT P6SM FEW250
     FM051700 32007KT P6SM SKC
     FM052200 01005KT P6SM FEW250
     FM052300 05004KT P6SM FEW250
     FM061000 19004KT P6SM FEW250=



000
FTUS41 KBUF 050903 AAA
TAFART
TAF AMD
KART 050903Z 0509/0606 VRB04KT P6SM SCT060
     FM051300 23004KT P6SM SKC
     FM051600 25008KT P6SM SKC
     FM060000 21004KT P6SM SKC
     FM060100 VRB03KT P6SM SKC=



000
FTUS41 KBUF 050903 AAA
TAFROC
TAF AMD
KROC 050903Z 0509/0606 23004KT P6SM FEW250
     FM051500 27006KT P6SM SKC
     FM051700 31007KT P6SM SKC
     FM052200 36005KT P6SM FEW250
     FM052300 05004KT P6SM FEW250
     FM060000 VRB03KT P6SM SKC=



000
FTUS41 KBUF 050903 AAA
TAFIAG
TAF AMD
KIAG 050903Z 0509/0606 VRB03KT P6SM FEW250
     FM051400 23004KT P6SM FEW250
     FM060000 19005KT P6SM FEW250
     FM060300 VRB03KT P6SM FEW250=



000
FTUS41 KBUF 050903 AAA
TAFART
TAF AMD
KART 050903Z 0509/0606 VRB04KT P6SM SCT060
     FM051300 23004KT P6SM SKC
     FM051600 25008KT P6SM SKC
     FM060000 21004KT P6SM SKC
     FM060100 VRB03KT P6SM SKC=



000
FTUS41 KBUF 050903 AAA
TAFBUF
TAF AMD
KBUF 050903Z 0509/0606 20005KT P6SM FEW250
     FM051600 25006KT P6SM FEW250
     FM052300 21006KT P6SM SKC
     FM060200 17004KT P6SM FEW250=



000
FTUS41 KBUF 050903 AAA
TAFJHW
TAF AMD
KJHW 050903Z 0509/0606 00000KT 3SM BR SKC
     FM051300 00000KT P6SM SKC
     FM052000 34004KT P6SM FEW250
     FM060100 VRB03KT P6SM SCT250
      AMD LTD TO CLD VIS AND WIND=



000
FTUS41 KBUF 050903 AAA
TAFROC
TAF AMD
KROC 050903Z 0509/0606 23004KT P6SM FEW250
     FM051500 27006KT P6SM SKC
     FM051700 31007KT P6SM SKC
     FM052200 36005KT P6SM FEW250
     FM052300 05004KT P6SM FEW250
     FM060000 VRB03KT P6SM SKC=



000
FTUS41 KBUF 050903 AAA
TAFJHW
TAF AMD
KJHW 050903Z 0509/0606 00000KT 3SM BR SKC
     FM051300 00000KT P6SM SKC
     FM052000 34004KT P6SM FEW250
     FM060100 VRB03KT P6SM SCT250
      AMD LTD TO CLD VIS AND WIND=



000
FTUS41 KBUF 050903 AAA
TAFBUF
TAF AMD
KBUF 050903Z 0509/0606 20005KT P6SM FEW250
     FM051600 25006KT P6SM FEW250
     FM052300 21006KT P6SM SKC
     FM060200 17004KT P6SM FEW250=



000
FTUS41 KBUF 050903 AAA
TAFIAG
TAF AMD
KIAG 050903Z 0509/0606 VRB03KT P6SM FEW250
     FM051400 23004KT P6SM FEW250
     FM060000 19005KT P6SM FEW250
     FM060300 VRB03KT P6SM FEW250=



000
FTUS41 KBUF 050520
TAFIAG
TAF
KIAG 050520Z 0506/0606 VRB03KT P6SM FEW250
     FM051400 23004KT P6SM FEW250
     FM060000 19005KT P6SM FEW250
     FM060300 VRB03KT P6SM FEW250=



000
FTUS41 KBUF 050520
TAFART
TAF
KART 050520Z 0506/0606 00000KT P6SM FEW080
     FM051300 23004KT P6SM SKC
     FM051600 25008KT P6SM SKC
     FM060000 21004KT P6SM SKC
     FM060100 VRB03KT P6SM SKC=



000
FTUS41 KBUF 050520
TAFJHW
TAF
KJHW 050520Z 0506/0606 00000KT 6SM BR FEW250
     FM050900 00000KT 3SM BR SKC
     FM051300 00000KT P6SM SKC
     FM052000 34004KT P6SM FEW250
     FM060100 VRB03KT P6SM SCT250
      AMD LTD TO CLD VIS AND WIND=



000
FTUS41 KBUF 050520
TAFROC
TAF
KROC 050520Z 0506/0606 23004KT P6SM FEW250
     FM051500 27006KT P6SM SKC
     FM051700 31007KT P6SM SKC
     FM052200 36005KT P6SM FEW250
     FM052300 05004KT P6SM FEW250
     FM060000 VRB03KT P6SM SKC=



000
FTUS41 KBUF 050520
TAFBUF
TAF
KBUF 050520Z 0506/0606 21005KT P6SM FEW250
     FM051600 25006KT P6SM FEW250
     FM052300 21006KT P6SM SKC
     FM060200 17004KT P6SM FEW250=



000
FTUS41 KBUF 050520
TAFIAG
TAF
KIAG 050520Z 0506/0606 VRB03KT P6SM FEW250
     FM051400 23004KT P6SM FEW250
     FM060000 19005KT P6SM FEW250
     FM060300 VRB03KT P6SM FEW250=



000
FTUS41 KBUF 050520
TAFROC
TAF
KROC 050520Z 0506/0606 23004KT P6SM FEW250
     FM051500 27006KT P6SM SKC
     FM051700 31007KT P6SM SKC
     FM052200 36005KT P6SM FEW250
     FM052300 05004KT P6SM FEW250
     FM060000 VRB03KT P6SM SKC=



000
FTUS41 KBUF 050520
TAFART
TAF
KART 050520Z 0506/0606 00000KT P6SM FEW080
     FM051300 23004KT P6SM SKC
     FM051600 25008KT P6SM SKC
     FM060000 21004KT P6SM SKC
     FM060100 VRB03KT P6SM SKC=



000
FTUS41 KBUF 050520
TAFJHW
TAF
KJHW 050520Z 0506/0606 00000KT 6SM BR FEW250
     FM050900 00000KT 3SM BR SKC
     FM051300 00000KT P6SM SKC
     FM052000 34004KT P6SM FEW250
     FM060100 VRB03KT P6SM SCT250
      AMD LTD TO CLD VIS AND WIND=



000
FTUS41 KBUF 050520
TAFBUF
TAF
KBUF 050520Z 0506/0606 21005KT P6SM FEW250
     FM051600 25006KT P6SM FEW250
     FM052300 21006KT P6SM SKC
     FM060200 17004KT P6SM FEW250=



000
FTUS41 KBUF 050314 AAA
TAFART
TAF AMD
KART 050314Z 0503/0524 19004KT P6SM SKC
     FM050600 VRB03KT 6SM BR SKC
      TEMPO 0509/0512 4SM BR
     FM051300 23004KT P6SM SKC
     FM051600 24010KT P6SM SKC=



000
FTUS41 KBUF 050313 AAB
TAFJHW
TAF AMD
KJHW 050313Z 0503/0524 00000KT P6SM SKC
     FM050900 00000KT 3SM BR FEW250
     FM051300 00000KT P6SM SKC
     FM051800 28006KT P6SM SCT050
     FM052200 33006KT P6SM SCT050
      AMD LTD TO CLD VIS AND WIND=



000
FTUS41 KBUF 050313 AAB
TAFROC
TAF AMD
KROC 050313Z 0503/0524 24004KT P6SM SKC
     FM051500 27008KT P6SM FEW050
     FM051800 30008KT P6SM SCT050=



000
FTUS41 KBUF 050308 AAB
TAFIAG
TAF AMD
KIAG 050308Z 0503/0524 21006KT P6SM SKC
     FM050800 00000KT P6SM SKC
      TEMPO 0508/0512 4SM BR
     FM051500 24008KT P6SM SCT050=



000
FTUS41 KBUF 050308 AAB
TAFIAG
TAF AMD
KIAG 050308Z 0503/0524 21006KT P6SM SKC
     FM050800 00000KT P6SM SKC
      TEMPO 0508/0512 4SM BR
     FM051500 24008KT P6SM SCT050=



000
FTUS41 KBUF 050307 AAB
TAFBUF
TAF AMD
KBUF 050307Z 0503/0524 22005KT P6SM SKC
      TEMPO 0503/0506 5SM FU
     FM051500 25010KT P6SM SCT050=



000
FTUS41 KBUF 050137 AAA
TAFJHW
TAF AMD
KJHW 050137Z 0502/0524 00000KT P6SM SKC
     FM050600 00000KT 3SM BR FEW250
     FM051300 00000KT P6SM SKC
     FM051800 28006KT P6SM SCT050
     FM052200 33006KT P6SM SCT050
      AMD LTD TO CLD VIS AND WIND=



000
FTUS41 KBUF 050137 AAA
TAFJHW
TAF AMD
KJHW 050137Z 0502/0524 00000KT P6SM SKC
     FM050600 00000KT 3SM BR FEW250
     FM051300 00000KT P6SM SKC
     FM051800 28006KT P6SM SCT050
     FM052200 33006KT P6SM SCT050
      AMD LTD TO CLD VIS AND WIND=



000
FTUS41 KBUF 050136 AAA
TAFIAG
TAF AMD
KIAG 050136Z 0502/0524 23008KT P6SM SKC
     FM050800 00000KT P6SM SKC
      TEMPO 0508/0512 4SM BR
     FM051500 24008KT P6SM SCT050=



000
FTUS41 KBUF 050136 AAA
TAFROC
TAF AMD
KROC 050136Z 0502/0524 24004KT P6SM SKC
     FM051500 27008KT P6SM FEW050
     FM051800 30008KT P6SM SCT050=



000
FTUS41 KBUF 050136 AAA
TAFIAG
TAF AMD
KIAG 050136Z 0502/0524 23008KT P6SM SKC
     FM050800 00000KT P6SM SKC
      TEMPO 0508/0512 4SM BR
     FM051500 24008KT P6SM SCT050=



000
FTUS41 KBUF 050136 AAA
TAFROC
TAF AMD
KROC 050136Z 0502/0524 24004KT P6SM SKC
     FM051500 27008KT P6SM FEW050
     FM051800 30008KT P6SM SCT050=



000
FTUS41 KBUF 050135 AAA
TAFBUF
TAF AMD
KBUF 050135Z 0502/0524 23008KT P6SM SKC
     FM050600 22004KT P6SM SKC
     FM051500 25010KT P6SM SCT050=



000
FTUS41 KBUF 042339
TAFART
TAF
KART 042339Z 0500/0524 22004KT 6SM HZ SCT250
     FM050300 VRB03KT 4SM BR SKC
     FM051300 23004KT P6SM SKC
     FM051600 24010KT P6SM SKC=



000
FTUS41 KBUF 042339
TAFIAG
TAF
KIAG 042339Z 0500/0524 30005KT P6SM SCT250
     FM050300 25005KT P6SM SKC
     FM050800 00000KT P6SM SKC
      TEMPO 0508/0512 4SM BR
     FM051500 24008KT P6SM SCT050=



000
FTUS41 KBUF 042339
TAFJHW
TAF
KJHW 042339Z 0500/0524 32004KT P6SM SKC
     FM050300 00000KT P6SM SKC
     FM050600 00000KT 3SM BR FEW250
     FM051300 00000KT P6SM SKC
     FM051800 28006KT P6SM SCT050
     FM052200 33006KT P6SM SCT050
      AMD LTD TO CLD VIS AND WIND=



000
FTUS41 KBUF 042339
TAFBUF
TAF
KBUF 042339Z 0500/0524 31006KT P6SM FEW250
     FM050200 25006KT P6SM SKC
     FM050600 22004KT P6SM SKC
     FM051500 25010KT P6SM SCT050=



000
FTUS41 KBUF 042339
TAFROC
TAF
KROC 042339Z 0500/0524 30004KT P6SM FEW040 SCT250
     FM050400 24004KT P6SM SKC
     FM051500 27008KT P6SM FEW050
     FM051800 30008KT P6SM SCT050=



000
FTUS41 KBUF 042244 AAB
TAFIAG
TAF AMD
KIAG 042244Z 0423/0518 30006KT P6SM FEW050 SCT250
     FM050200 26004KT P6SM SCT250
     FM051500 23008KT P6SM SCT050=



000
FTUS41 KBUF 042124 AAA
TAFART
TAF AMD
KART 042124Z 0421/0518 25006KT 6SM HZ SCT070 BKN250
     FM042300 22004KT P6SM SCT250
     FM051500 25008KT P6SM SCT050=



000
FTUS41 KBUF 042122 AAA
TAFJHW
TAF AMD
KJHW 042122Z 0421/0518 34010KT P6SM SCT250
     FM050100 31005KT P6SM SKC
     FM050600 26004KT 3SM BR FEW250
     FM051300 VRB03KT P6SM SKC
     FM051700 29005KT P6SM FEW250
      AMD LTD TO CLD VIS AND WIND=



000
FTUS41 KBUF 042121 AAA
TAFROC
TAF AMD
KROC 042121Z 0421/0518 34008KT P6SM SCT040 SCT250
     FM050200 26004KT P6SM SCT250
     FM051000 23004KT P6SM SCT250
     FM051500 27008KT P6SM SCT050=



000
FTUS41 KBUF 042120 AAA
TAFIAG
TAF AMD
KIAG 042120Z 0421/0518 28006KT P6SM FEW050 SCT250
     FM050200 25004KT P6SM SCT250
     FM051500 23008KT P6SM SCT050=



000
FTUS41 KBUF 042118 AAA
TAFBUF
TAF AMD
KBUF 042118Z 0421/0518 29008KT P6SM FEW050 SCT250
     FM050300 25005KT P6SM SCT250
     FM051400 25005KT P6SM SCT050=



000
FTUS41 KBUF 041720
TAFIAG
TAF
KIAG 041720Z 0418/0518 04008KT P6SM SKC
     FM042000 31007KT P6SM SKC
     FM050500 27004KT P6SM FEW050
     FM051400 23005KT P6SM SCT050=



000
FTUS41 KBUF 041720
TAFART
TAF
KART 041720Z 0418/0518 28008KT P6SM BKN050
     FM042000 26008KT P6SM SCT050
     FM042300 25009KT P6SM FEW250
     FM050500 25007KT P6SM FEW050=



000
FTUS41 KBUF 041720
TAFBUF
TAF
KBUF 041720Z 0418/0518 01008KT P6SM SKC
     FM042000 31008KT P6SM FEW250
     FM050500 27004KT P6SM FEW250
     FM051400 25005KT P6SM SCT050=



000
FTUS41 KBUF 041720
TAFJHW
TAF
KJHW 041720Z 0418/0518 36008KT P6SM SCT030
     FM050300 31005KT P6SM SKC
     FM050600 30004KT 3SM BR FEW250
     FM051300 VRB03KT P6SM SKC
     FM051700 31004KT P6SM FEW250
      AMD LTD TO CLD VIS AND WIND=



000
FTUS41 KBUF 041720
TAFROC
TAF
KROC 041720Z 0418/0518 00000KT P6SM SCT050
     FM042100 34006KT P6SM FEW050
     FM050800 30004KT P6SM SCT050
     FM051100 30004KT P6SM FEW250=



000
FTUS41 KBUF 041509 AAB
TAFJHW
TAF AMD
KJHW 041509Z 0415/0512 26005KT P6SM SCT015 BKN040
     FM041700 36008KT P6SM SCT040
     FM050000 VRB03KT P6SM SKC
     FM050800 VRB03KT 5SM BR SKC
      AMD LTD TO CLD VIS AND WIND=



000
FTUS41 KBUF 041509 AAB
TAFBUF
TAF AMD
KBUF 041509Z 0415/0512 01007KT P6SM FEW050 SCT250
     FM042000 26008KT P6SM SKC
     FM050000 22005KT P6SM SKC=



000
FTUS41 KBUF 041509 AAA
TAFROC
TAF AMD
KROC 041509Z 0415/0512 23005KT P6SM SCT030 BKN060
     FM041800 35008KT P6SM SCT050
     FM050000 VRB03KT P6SM SKC=



000
FTUS41 KBUF 041509 AAB
TAFJHW
TAF AMD
KJHW 041509Z 0415/0512 26005KT P6SM SCT015 BKN040
     FM041700 36008KT P6SM SCT040
     FM050000 VRB03KT P6SM SKC
     FM050800 VRB03KT 5SM BR SKC
      AMD LTD TO CLD VIS AND WIND=



000
FTUS41 KBUF 041509 AAB
TAFBUF
TAF AMD
KBUF 041509Z 0415/0512 01007KT P6SM FEW050 SCT250
     FM042000 26008KT P6SM SKC
     FM050000 22005KT P6SM SKC=



000
FTUS41 KBUF 041509 AAB
TAFART
TAF AMD
KART 041509Z 0415/0512 28004KT P6SM BKN030
     FM041700 24008KT P6SM SCT050
     FM050000 21004KT P6SM SKC=



000
FTUS41 KBUF 041509 AAA
TAFIAG
TAF AMD
KIAG 041509Z 0415/0512 02008KT P6SM SCT250
     FM041600 33008KT P6SM SKC
     FM050000 23004KT P6SM SKC=



000
FTUS41 KBUF 041509 AAA
TAFROC
TAF AMD
KROC 041509Z 0415/0512 23005KT P6SM SCT030 BKN060
     FM041800 35008KT P6SM SCT050
     FM050000 VRB03KT P6SM SKC=



000
FTUS41 KBUF 041509 AAA
TAFIAG
TAF AMD
KIAG 041509Z 0415/0512 02008KT P6SM SCT250
     FM041600 33008KT P6SM SKC
     FM050000 23004KT P6SM SKC=



000
FTUS41 KBUF 041509 AAB
TAFART
TAF AMD
KART 041509Z 0415/0512 28004KT P6SM BKN030
     FM041700 24008KT P6SM SCT050
     FM050000 21004KT P6SM SKC=



000
FTUS41 KBUF 041412 AAA
TAFART
TAF AMD
KART 041412Z 0414/0512 VRB03KT P6SM BKN025
     FM041700 24008KT P6SM SCT050
     FM050000 21004KT P6SM SKC=



000
FTUS41 KBUF 041411 AAA
TAFJHW
TAF AMD
KJHW 041411Z 0414/0512 VRB03KT P6SM BKN012
     FM041600 36008KT P6SM SCT020
     FM050000 VRB03KT P6SM SKC
     FM050800 VRB03KT 5SM BR SKC
      AMD LTD TO CLD VIS AND WIND=



000
FTUS41 KBUF 041122
TAFBUF
TAF
KBUF 041122Z 0412/0512 01005KT P6SM SCT200
     FM041400 35006KT P6SM SCT050
     FM042000 26008KT P6SM SKC
     FM050000 22005KT P6SM SKC=



000
FTUS41 KBUF 041122
TAFJHW
TAF
KJHW 041122Z 0412/0512 VRB03KT P6SM SCT015 BKN200
     FM041400 35008KT P6SM SCT030
     FM050000 VRB03KT P6SM SKC
     FM050800 VRB03KT 5SM BR SKC
      AMD LTD TO CLD VIS AND WIND=



000
FTUS41 KBUF 041122
TAFART
TAF
KART 041122Z 0412/0512 VRB03KT P6SM VCSH BKN040
     FM041700 24008KT P6SM SCT050
     FM050000 21004KT P6SM SKC=



000
FTUS41 KBUF 041122
TAFROC
TAF
KROC 041122Z 0412/0512 VRB03KT P6SM BKN200
     FM041500 34005KT P6SM VCSH BKN040
     FM041800 35008KT P6SM SCT040
     FM050000 VRB03KT P6SM SKC=



000
FTUS41 KBUF 041122
TAFIAG
TAF
KIAG 041122Z 0412/0512 36006KT P6SM SCT200
     FM041600 33008KT P6SM SKC
     FM050000 23004KT P6SM SKC=



000
FTUS41 KBUF 041013 AAB
TAFART
TAF AMD
KART 041013Z 0410/0506 VRB03KT P6SM VCSH BKN040
     FM041500 24006KT P6SM VCSH BKN050
     FM041800 24008KT P6SM SCT050
     FM050000 VRB03KT P6SM SKC=



000
FTUS41 KBUF 040907 AAA
TAFROC
TAF AMD
KROC 040907Z 0409/0506 VRB03KT P6SM SCT060 BKN150
     FM041600 34005KT P6SM VCSH BKN040
     FM041900 35008KT P6SM SCT040
     FM050000 VRB03KT P6SM SKC=



000
FTUS41 KBUF 040907 AAA
TAFART
TAF AMD
KART 040907Z 0409/0506 VRB03KT P6SM BKN200
     FM041500 24006KT P6SM VCSH BKN050
     FM041900 24008KT P6SM SCT050
     FM050000 VRB03KT P6SM SKC=



000
FTUS41 KBUF 040907 AAA
TAFBUF
TAF AMD
KBUF 040907Z 0409/0506 36004KT P6SM BKN200
     FM041400 35006KT P6SM SCT050
     FM042000 26008KT P6SM SKC
     FM050000 VRB03KT P6SM SKC=



000
FTUS41 KBUF 040907 AAA
TAFIAG
TAF AMD
KIAG 040907Z 0409/0506 36004KT P6SM BKN200
     FM041200 36006KT P6SM SKC
     FM041800 33008KT P6SM SKC
     FM050000 VRB03KT P6SM SKC=



000
FTUS41 KBUF 040907 AAA
TAFJHW
TAF AMD
KJHW 040907Z 0409/0506 VRB03KT P6SM SCT015 BKN200
     FM041400 35008KT P6SM SCT040
     FM050000 VRB03KT P6SM SKC
      AMD LTD TO CLD VIS AND WIND=



000
FTUS41 KBUF 040539
TAFBUF
TAF
KBUF 040539Z 0406/0506 04003KT P6SM BKN150
     FM041400 35006KT P6SM SCT050
     FM042000 26008KT P6SM SKC
     FM050000 VRB03KT P6SM SKC=



000
FTUS41 KBUF 040539
TAFIAG
TAF
KIAG 040539Z 0406/0506 04003KT P6SM BKN150
     FM041200 36006KT P6SM SKC
     FM041800 33008KT P6SM SKC
     FM050000 VRB03KT P6SM SKC=



000
FTUS41 KBUF 040539
TAFROC
TAF
KROC 040539Z 0406/0506 07003KT P6SM BKN150
     FM040900 VRB03KT P6SM BKN040
     FM041600 34005KT P6SM VCSH BKN040
     FM041900 35008KT P6SM SCT040
     FM050000 VRB03KT P6SM SKC=



000
FTUS41 KBUF 040539
TAFJHW
TAF
KJHW 040539Z 0406/0506 VRB03KT P6SM BKN150
     FM040800 VRB03KT P6SM SCT015 BKN040
     FM041500 35008KT P6SM VCSH BKN040
     FM041800 34008KT P6SM SCT040
     FM050000 VRB03KT P6SM SKC
      AMD LTD TO CLD VIS AND WIND=



000
FTUS41 KBUF 040539
TAFART
TAF
KART 040539Z 0406/0506 VRB03KT P6SM BKN250
     FM041400 24006KT P6SM VCSH BKN050
     FM041900 24008KT P6SM SCT050
     FM050000 VRB03KT P6SM SKC=



000
FTUS41 KBUF 040305 AAA
TAFROC
TAF AMD
KROC 040305Z 0403/0424 08005KT P6SM BKN200
     FM040600 VRB03KT P6SM BKN060
     FM040900 VRB04KT P6SM BKN045
     FM041700 26005KT P6SM BKN040
     FM042000 31006KT P6SM SCT250=



000
FTUS41 KBUF 040305 AAA
TAFART
TAF AMD
KART 040305Z 0403/0424 VRB03KT P6SM SCT250
     FM040700 VRB03KT P6SM BKN060
     FM041600 24007KT P6SM BKN060
     FM042000 24007KT P6SM SCT250=



000
FTUS41 KBUF 040305 AAA
TAFIAG
TAF AMD
KIAG 040305Z 0403/0424 VRB03KT P6SM BKN250
     FM040900 VRB03KT P6SM SCT250
     FM041500 34005KT P6SM FEW250
     FM041800 30006KT P6SM FEW250
     FM042100 25006KT P6SM FEW250=



000
FTUS41 KBUF 040305 AAA
TAFJHW
TAF AMD
KJHW 040305Z 0403/0424 35005KT P6SM FEW050 BKN250
     FM040500 VRB03KT P6SM BKN050
     FM041000 VRB03KT P6SM BKN020
     FM041400 VRB03KT P6SM BKN200
     FM041700 32006KT P6SM VCSH BKN040
     FM042000 32007KT P6SM SCT250
      AMD LTD TO CLD VIS AND WIND=



000
FTUS41 KBUF 040305 AAA
TAFBUF
TAF AMD
KBUF 040305Z 0403/0424 VRB03KT P6SM FEW060 BKN250
     FM040600 09003KT P6SM BKN060
     FM041400 VRB05KT P6SM SCT250
     FM041800 26008KT P6SM SCT250=



000
FTUS41 KBUF 032331
TAFROC
TAF
KROC 032331Z 0400/0424 05008KT P6SM BKN200
     FM040200 VRB03KT P6SM BKN250
     FM040400 VRB03KT P6SM BKN060
     FM040900 VRB04KT P6SM BKN045
     FM041700 26005KT P6SM BKN040
     FM042000 31006KT P6SM SCT250=



000
FTUS41 KBUF 032331
TAFART
TAF
KART 032331Z 0400/0424 VRB03KT P6SM SCT250
     FM040700 VRB03KT P6SM BKN060
     FM041600 24007KT P6SM BKN060
     FM042000 24007KT P6SM SCT250=



000
FTUS41 KBUF 032331
TAFJHW
TAF
KJHW 032331Z 0400/0424 34006KT P6SM SCT050
     FM040200 VRB03KT P6SM BKN050
     FM041000 VRB03KT P6SM BKN020
     FM041400 VRB03KT P6SM BKN200
     FM041700 32006KT P6SM VCSH BKN040
     FM042000 32007KT P6SM SCT250
      AMD LTD TO CLD VIS AND WIND=



000
FTUS41 KBUF 032331
TAFBUF
TAF
KBUF 032331Z 0400/0424 01008KT P6SM FEW040 BKN250
     FM040100 06006KT P6SM BKN250
     FM040500 09004KT P6SM BKN060
     FM041400 VRB05KT P6SM SCT250
     FM041800 26008KT P6SM SCT250=



000
FTUS41 KBUF 032331
TAFIAG
TAF
KIAG 032331Z 0400/0424 05008KT P6SM FEW040 BKN250
     FM040200 VRB03KT P6SM BKN250
     FM040900 VRB03KT P6SM SCT250
     FM041500 34005KT P6SM FEW250
     FM041800 30006KT P6SM FEW250
     FM042100 25006KT P6SM FEW250=



000
FTUS41 KBUF 032106 AAA
TAFJHW
TAF AMD
KJHW 032106Z 0321/0418 VRB04KT P6SM FEW050 BKN200
     FM032200 36005KT P6SM SCT050 BKN200
     FM041400 17004KT P6SM BKN035
     FM041600 21006KT P6SM SCT035
      AMD LTD TO CLD VIS AND WIND=



000
FTUS41 KBUF 032106 AAA
TAFBUF
TAF AMD
KBUF 032106Z 0321/0418 VRB03KT P6SM SCT250
     FM032200 01010KT P6SM SCT250
     FM040100 08005KT P6SM SCT050 BKN250
     FM041600 29004KT P6SM SCT250=



000
FTUS41 KBUF 032106 AAA
TAFART
TAF AMD
KART 032106Z 0321/0418 25009KT P6SM FEW030 FEW250
     FM040300 13004KT P6SM SCT250
     FM041400 19004KT P6SM BKN050=



000
FTUS41 KBUF 032106 AAA
TAFROC
TAF AMD
KROC 032106Z 0321/0418 04011KT P6SM FEW030 BKN200
     FM040100 07003KT P6SM BKN200
     FM040300 09004KT P6SM BKN045
     FM041600 25004KT P6SM BKN035=



000
FTUS41 KBUF 032106 AAA
TAFIAG
TAF AMD
KIAG 032106Z 0321/0418 01010KT P6SM SCT250
     FM040100 08003KT P6SM SCT050 SCT250
     FM041400 35004KT P6SM SCT250=



000
FTUS41 KBUF 031722
TAFBUF
TAF
KBUF 031722Z 0318/0418 34003KT P6SM SCT250
     FM040100 04009KT P6SM SCT050 BKN250
     FM041600 29004KT P6SM SCT250=



000
FTUS41 KBUF 031722
TAFBUF
TAF
KBUF 031722Z 0318/0418 34003KT P6SM SCT250
     FM040100 04009KT P6SM SCT050 BKN250
     FM041600 29004KT P6SM SCT250=



000
FTUS41 KBUF 031722
TAFROC
TAF
KROC 031722Z 0318/0418 06004KT P6SM FEW030 SCT250
     FM040300 09004KT P6SM BKN045
     FM041600 25004KT P6SM BKN035=



000
FTUS41 KBUF 031722
TAFIAG
TAF
KIAG 031722Z 0318/0418 01004KT P6SM SCT250
     FM040200 08005KT P6SM SCT050 SCT250
     FM041400 35004KT P6SM SCT250=



000
FTUS41 KBUF 031722
TAFART
TAF
KART 031722Z 0318/0418 25009KT P6SM FEW030 FEW250
     FM040300 13004KT P6SM SCT250
     FM041400 19004KT P6SM BKN050=



000
FTUS41 KBUF 031722
TAFJHW
TAF
KJHW 031722Z 0318/0418 14004KT P6SM BKN200
     FM032200 03004KT P6SM SCT050 BKN200
     FM041400 17004KT P6SM BKN035
     FM041600 21006KT P6SM SCT035
      AMD LTD TO CLD VIS AND WIND=



000
FTUS41 KBUF 031722
TAFIAG
TAF
KIAG 031722Z 0318/0418 01004KT P6SM SCT250
     FM040200 08005KT P6SM SCT050 SCT250
     FM041400 35004KT P6SM SCT250=



000
FTUS41 KBUF 031722
TAFART
TAF
KART 031722Z 0318/0418 25009KT P6SM FEW030 FEW250
     FM040300 13004KT P6SM SCT250
     FM041400 19004KT P6SM BKN050=



000
FTUS41 KBUF 031722
TAFJHW
TAF
KJHW 031722Z 0318/0418 14004KT P6SM BKN200
     FM032200 03004KT P6SM SCT050 BKN200
     FM041400 17004KT P6SM BKN035
     FM041600 21006KT P6SM SCT035
      AMD LTD TO CLD VIS AND WIND=



000
FTUS41 KBUF 031722
TAFROC
TAF
KROC 031722Z 0318/0418 06004KT P6SM FEW030 SCT250
     FM040300 09004KT P6SM BKN045
     FM041600 25004KT P6SM BKN035=



000
FTUS41 KBUF 031120
TAFBUF
TAF
KBUF 031120Z 0312/0412 VRB03KT P6SM SKC
     FM031800 02005KT P6SM SCT200
     FM040300 08005KT P6SM SCT040 BKN150
     FM041000 VRB03KT P6SM BKN040=



000
FTUS41 KBUF 031120
TAFROC
TAF
KROC 031120Z 0312/0412 VRB03KT P6SM SKC
     FM031600 03007KT P6SM SCT200
     FM040300 VRB03KT P6SM SCT040 BKN150
     FM041000 VRB03KT P6SM BKN040=



000
FTUS41 KBUF 031120
TAFBUF
TAF
KBUF 031120Z 0312/0412 VRB03KT P6SM SKC
     FM031800 02005KT P6SM SCT200
     FM040300 08005KT P6SM SCT040 BKN150
     FM041000 VRB03KT P6SM BKN040=



000
FTUS41 KBUF 031120
TAFROC
TAF
KROC 031120Z 0312/0412 VRB03KT P6SM SKC
     FM031600 03007KT P6SM SCT200
     FM040300 VRB03KT P6SM SCT040 BKN150
     FM041000 VRB03KT P6SM BKN040=



000
FTUS41 KBUF 031120
TAFIAG
TAF
KIAG 031120Z 0312/0412 VRB03KT P6SM SKC
     FM031600 02007KT P6SM SCT200
     FM040300 08005KT P6SM SCT040 BKN150=



000
FTUS41 KBUF 031120
TAFJHW
TAF
KJHW 031120Z 0312/0412 VRB03KT P6SM SCT250
     FM031600 03006KT P6SM SCT060 BKN200
     FM040200 VRB03KT P6SM BKN040
     FM040800 VRB03KT P6SM VCSH BKN035
      AMD LTD TO CLD VIS AND WIND=



000
FTUS41 KBUF 031120
TAFIAG
TAF
KIAG 031120Z 0312/0412 VRB03KT P6SM SKC
     FM031600 02007KT P6SM SCT200
     FM040300 08005KT P6SM SCT040 BKN150=



000
FTUS41 KBUF 031120
TAFJHW
TAF
KJHW 031120Z 0312/0412 VRB03KT P6SM SCT250
     FM031600 03006KT P6SM SCT060 BKN200
     FM040200 VRB03KT P6SM BKN040
     FM040800 VRB03KT P6SM VCSH BKN035
      AMD LTD TO CLD VIS AND WIND=



000
FTUS41 KBUF 031120
TAFART
TAF
KART 031120Z 0312/0412 VRB03KT P6SM SKC
     FM031600 25008KT P6SM SKC
     FM040000 VRB03KT P6SM SCT200
     FM040900 VRB03KT P6SM SCT040 BKN150=



000
FTUS41 KBUF 031120
TAFART
TAF
KART 031120Z 0312/0412 VRB03KT P6SM SKC
     FM031600 25008KT P6SM SKC
     FM040000 VRB03KT P6SM SCT200
     FM040900 VRB03KT P6SM SCT040 BKN150=



000
FTUS41 KBUF 030855 AAA
TAFBUF
TAF AMD
KBUF 030855Z 0309/0406 VRB03KT P6SM SKC
     FM031800 02005KT P6SM SCT250
     FM040300 08005KT P6SM SCT050 BKN200=



000
FTUS41 KBUF 030855 AAA
TAFART
TAF AMD
KART 030855Z 0309/0406 VRB03KT P6SM SCT250
     FM031600 25008KT P6SM SKC
     FM040000 VRB03KT P6SM SCT200=



000
FTUS41 KBUF 030855 AAA
TAFJHW
TAF AMD
KJHW 030855Z 0309/0406 VRB03KT P6SM SCT250
     FM031600 VRB05KT P6SM SCT050 SCT250
     FM032100 03006KT P6SM SCT060 BKN200
     FM040300 VRB03KT P6SM BKN040
      AMD LTD TO CLD VIS AND WIND=



000
FTUS41 KBUF 030855 AAA
TAFIAG
TAF AMD
KIAG 030855Z 0309/0406 VRB03KT P6SM SKC
     FM031600 02007KT P6SM SCT250
     FM040300 08005KT P6SM SCT050 BKN200=



000
FTUS41 KBUF 030855 AAA
TAFROC
TAF AMD
KROC 030855Z 0309/0406 VRB03KT P6SM SKC
     FM031600 03007KT P6SM SCT250
     FM040300 VRB03KT P6SM SCT050 BKN200=



000
FTUS41 KBUF 030531
TAFIAG
TAF
KIAG 030531Z 0306/0406 VRB03KT P6SM SKC
     FM031600 02007KT P6SM SCT250
     FM040300 08005KT P6SM SCT050 BKN200=



000
FTUS41 KBUF 030531
TAFART
TAF
KART 030531Z 0306/0406 VRB03KT P6SM SKC
     FM031600 25008KT P6SM SKC
     FM040000 VRB03KT P6SM SCT200=



000
FTUS41 KBUF 030531
TAFROC
TAF
KROC 030531Z 0306/0406 VRB03KT P6SM SKC
     FM031600 03007KT P6SM SCT250
     FM040300 VRB03KT P6SM SCT050 BKN200=



000
FTUS41 KBUF 030531
TAFBUF
TAF
KBUF 030531Z 0306/0406 VRB03KT P6SM SKC
     FM031800 02005KT P6SM SCT250
     FM040300 08005KT P6SM SCT050 BKN200=



000
FTUS41 KBUF 030531
TAFJHW
TAF
KJHW 030531Z 0306/0406 VRB03KT P6SM SCT250
     FM031600 VRB05KT P6SM SCT050 SCT250
     FM032100 03006KT P6SM SCT060 BKN200
     FM040300 VRB03KT P6SM BKN040
      AMD LTD TO CLD VIS AND WIND=



000
FTUS41 KBUF 030303 AAA
TAFART
TAF AMD
KART 030303Z 0303/0324 VRB03KT P6SM SKC
     FM031600 25008KT P6SM SKC=



000
FTUS41 KBUF 030303 AAA
TAFROC
TAF AMD
KROC 030303Z 0303/0324 VRB03KT P6SM SKC
     FM031600 03007KT P6SM SCT060 SCT250=



000
FTUS41 KBUF 030303 AAA
TAFIAG
TAF AMD
KIAG 030303Z 0303/0324 VRB03KT P6SM SKC
     FM031600 02007KT P6SM SCT060 SCT250=



000
FTUS41 KBUF 030303 AAA
TAFBUF
TAF AMD
KBUF 030303Z 0303/0324 VRB03KT P6SM SKC
     FM031600 04006KT P6SM SCT060 SCT250=



000
FTUS41 KBUF 030303 AAA
TAFJHW
TAF AMD
KJHW 030303Z 0303/0324 03004KT P6SM SKC
     FM030500 VRB03KT P6SM SKC
     FM031500 08005KT P6SM SCT050 SCT250
     FM032100 03007KT P6SM SCT060 SCT200
      AMD LTD TO CLD VIS AND WIND=



000
FTUS41 KBUF 022331
TAFIAG
TAF
KIAG 022331Z 0300/0324 01006KT P6SM SKC
     FM030200 VRB03KT P6SM SKC
     FM031600 02007KT P6SM SCT060 SCT250=



000
FTUS41 KBUF 022331
TAFBUF
TAF
KBUF 022331Z 0300/0324 01006KT P6SM SKC
     FM030200 VRB03KT P6SM SKC
     FM031600 04006KT P6SM SCT060 SCT250=



000
FTUS41 KBUF 022331
TAFART
TAF
KART 022331Z 0300/0324 26006KT P6SM SKC
     FM030200 VRB03KT P6SM SKC
     FM031600 25008KT P6SM SKC=



000
FTUS41 KBUF 022331
TAFJHW
TAF
KJHW 022331Z 0300/0324 01006KT P6SM SKC
     FM030400 VRB03KT P6SM SKC
     FM031500 08005KT P6SM SCT050 SCT250
     FM032100 03007KT P6SM SCT060 SCT200
      AMD LTD TO CLD VIS AND WIND=



000
FTUS41 KBUF 022331
TAFROC
TAF
KROC 022331Z 0300/0324 34006KT P6SM SKC
     FM030300 VRB03KT P6SM SKC
     FM031600 03007KT P6SM SCT060 SCT250=



000
FTUS41 KBUF 022331
TAFART
TAF
KART 022331Z 0300/0324 26006KT P6SM SKC
     FM030200 VRB03KT P6SM SKC
     FM031600 25008KT P6SM SKC=



000
FTUS41 KBUF 022331
TAFBUF
TAF
KBUF 022331Z 0300/0324 01006KT P6SM SKC
     FM030200 VRB03KT P6SM SKC
     FM031600 04006KT P6SM SCT060 SCT250=



000
FTUS41 KBUF 022331
TAFIAG
TAF
KIAG 022331Z 0300/0324 01006KT P6SM SKC
     FM030200 VRB03KT P6SM SKC
     FM031600 02007KT P6SM SCT060 SCT250=



000
FTUS41 KBUF 022331
TAFJHW
TAF
KJHW 022331Z 0300/0324 01006KT P6SM SKC
     FM030400 VRB03KT P6SM SKC
     FM031500 08005KT P6SM SCT050 SCT250
     FM032100 03007KT P6SM SCT060 SCT200
      AMD LTD TO CLD VIS AND WIND=



000
FTUS41 KBUF 022331
TAFROC
TAF
KROC 022331Z 0300/0324 34006KT P6SM SKC
     FM030300 VRB03KT P6SM SKC
     FM031600 03007KT P6SM SCT060 SCT250=



000
FTUS41 KBUF 022052 AAA
TAFBUF
TAF AMD
KBUF 022052Z 0221/0318 34007KT P6SM FEW050
     FM030000 VRB03KT P6SM SKC=



000
FTUS41 KBUF 022052 AAA
TAFIAG
TAF AMD
KIAG 022052Z 0221/0318 02007KT P6SM FEW040
     FM022300 VRB03KT P6SM SKC=



000
FTUS41 KBUF 022052 AAA
TAFJHW
TAF AMD
KJHW 022052Z 0221/0318 35008KT P6SM FEW040
     FM030100 VRB03KT P6SM SKC
      TEMPO 0308/0311 4SM BR
      AMD LTD TO CLD VIS AND WIND=



000
FTUS41 KBUF 022052 AAA
TAFART
TAF AMD
KART 022052Z 0221/0318 27010KT P6SM SKC
     FM030000 VRB03KT P6SM SKC=



000
FTUS41 KBUF 022052 AAA
TAFROC
TAF AMD
KROC 022052Z 0221/0318 01009KT P6SM FEW040
     FM030000 VRB03KT P6SM SKC=



    US Dept of Commerce
    National Oceanic and Atmospheric Administration
    National Weather Service
    1325 East West Highway
    Silver Spring, MD 20910
    Page Author: NWS Internet Services Team
Disclaimer
Information Quality
Credits
Glossary
Privacy Policy
Freedom of Information Act (FOIA)
About Us
Career Opportunities